Juno Beach, Florida
Current Conditions -  °F | °C
As of 8:53 PM on Thursday 20 Nov 2014 (Local Time) from KPBI Reporting Station
Broken Clouds Broken Clouds  
Wind Chill: 74°   Ceiling: 4000
Heat Index: 74°   Visibility: 10mi
Dew Point: 59°   Wind: 14mph
Humidity: 59%   Direction: 70°ENE
Pressure: 30.16"   Gusts: NA
Location:  26.8566°N, 80.0556°W
Report Text: KPBI 210153Z 07012KT 10SM SCT036 BKN040 BKN049 23/15 A3016 RMK AO2 SLP213 T02330150
Loading
Personal Weather Stations






























Interactive Weather Map New forecast layout! Learn more

10-Day Weather Forecast

Advertisements
Track Severe Weather on mobile